Date,TemperatureHighF,TemperatureAvgF,TemperatureLowF,DewpointHighF,DewpointAvgF,DewpointLowF,HumidityHigh,HumidityAvg,HumidityLow,PressureMaxIn,PressureMinIn,WindSpeedMaxMPH,WindSpeedAvgMPH,GustSpeedMaxMPH,PrecipitationSumIn
2013-1-1,52.2,42.3,32.2,30.3,25.0,19.9,78,53,32,30.11,30.05,25,0,25,0.00
2013-1-2,50.5,41.3,34.9,31.1,25.8,20.4,68,55,42,30.09,29.98,0,0,0,0.00
2013-1-3,50.7,40.2,34.3,33.6,27.6,22.6,69,61,47,30.10,30.00,0,0,0,0.00
2013-1-4,52.5,42.1,36.3,35.4,30.4,25.8,75,64,47,30.13,30.04,0,0,0,0.00
2013-1-5,51.8,43.7,39.9,37.7,34.1,29.4,81,69,56,30.10,29.94,0,0,0,0.02
2013-1-6,50.2,42.3,36.7,43.2,37.0,32.0,83,81,75,30.01,29.94,0,0,0,0.14
2013-1-7,54.7,45.1,36.0,42.4,37.2,31.2,84,74,60,30.05,29.98,0,0,0,0.00
2013-1-8,52.2,45.2,39.4,44.3,39.4,34.4,83,80,75,30.08,29.98,0,0,0,0.00
2013-1-9,48.2,42.4,33.3,41.3,37.0,28.4,84,81,75,30.02,29.74,15,0,15,0.25
2013-1-10,43.5,35.3,30.4,35.6,28.5,25.8,84,77,56,29.95,29.83,8,0,8,0.00
2013-1-11,43.7,34.7,28.9,32.3,27.0,20.1,81,74,56,30.03,29.94,5,0,5,0.00
2013-1-12,42.1,33.4,27.3,23.9,20.4,17.1,70,59,46,30.03,29.96,0,0,0,0.00
2013-1-13,42.6,34.1,27.7,21.6,16.9,9.6,66,50,36,30.10,29.99,11,0,11,0.00
2013-1-14,47.1,38.0,29.7,24.6,17.3,9.6,58,43,34,30.22,30.10,19,0,19,0.00
2013-1-15,51.4,40.2,32.4,32.4,28.3,23.8,73,63,44,30.30,30.20,6,0,6,0.00
2013-1-16,59.4,50.4,43.2,37.2,29.3,20.9,62,45,23,30.26,30.12,0,0,0,0.00
2013-1-17,59.7,50.6,42.6,38.1,27.1,19.3,57,41,22,30.13,30.02,13,0,13,0.00
2013-1-18,61.0,49.2,42.1,34.7,26.0,20.2,52,41,29,30.11,30.02,7,0,7,0.00
2013-1-19,61.5,49.2,41.2,35.9,26.1,20.2,55,41,29,30.14,30.02,0,0,0,0.00
2013-1-20,62.4,49.3,42.1,34.1,27.6,20.5,61,44,29,30.10,29.99,0,0,0,0.00
2013-1-21,60.1,47.9,39.9,37.4,29.6,23.0,60,50,35,30.05,29.99,0,0,0,0.00
2013-1-22,61.0,50.0,42.1,38.1,30.8,24.2,58,48,31,30.01,29.90,0,0,0,0.00
2013-1-23,58.8,50.5,46.6,44.1,36.3,29.7,83,60,35,29.99,29.85,7,0,7,0.47
2013-1-24,59.4,52.8,48.0,49.3,46.2,42.9,83,78,66,30.05,29.94,0,0,0,0.08
2013-1-25,58.8,52.9,49.3,52.5,47.5,44.3,83,82,78,30.04,29.90,0,0,0,0.02
2013-1-26,50.9,48.3,40.1,46.0,43.4,35.6,84,83,83,29.90,29.78,14,0,14,0.16
2013-1-27,49.3,40.8,35.2,40.6,34.1,30.5,84,77,55,29.98,29.84,7,0,7,0.00
2013-1-28,52.0,42.8,35.2,37.2,32.9,29.3,80,69,53,30.10,29.96,4,0,4,0.00
2013-1-29,54.7,44.8,36.7,41.1,36.1,31.1,81,72,59,30.19,30.10,0,0,0,0.00
2013-1-30,59.7,49.5,43.0,44.4,39.2,35.4,81,68,52,30.20,30.12,0,0,0,0.00
2013-1-31,57.7,47.4,40.8,44.9,39.2,34.1,81,74,61,30.16,30.07,5,0,5,0.00
2013-2-1,61.9,50.5,42.4,42.2,37.4,31.6,76,62,44,30.10,30.02,6,0,6,0.00
2013-2-2,63.5,51.5,45.0,44.2,38.1,33.7,71,61,47,30.15,30.07,0,0,0,0.00
2013-2-3,60.4,49.7,42.4,44.8,38.5,33.4,75,66,54,30.08,29.97,0,0,0,0.00
2013-2-4,59.5,49.3,42.1,44.3,37.7,31.7,78,65,52,30.01,29.91,0,0,0,0.00
2013-2-5,55.2,47.4,41.5,45.3,39.6,33.7,82,74,65,29.99,29.87,8,0,8,0.00
2013-2-6,55.4,45.3,36.7,40.3,35.9,31.4,83,71,55,30.00,29.93,9,0,9,0.00
2013-2-7,47.1,43.0,38.1,41.1,36.7,33.2,83,78,68,29.95,29.80,18,0,18,0.61
2013-2-8,52.0,42.4,35.4,37.5,30.2,22.4,83,64,42,29.85,29.78,6,0,6,0.02
2013-2-9,53.4,42.0,33.3,31.2,27.4,23.4,69,57,37,29.93,29.83,0,0,0,0.00
2013-2-10,56.5,45.3,35.8,36.4,30.0,23.8,73,56,35,29.97,29.88,13,0,13,0.00
2013-2-11,58.5,47.1,38.3,35.5,29.4,23.7,68,51,38,30.09,29.96,0,0,0,0.00
2013-2-12,55.9,45.2,37.9,38.2,33.6,28.1,77,64,50,30.20,30.08,0,0,0,0.00
2013-2-13,61.5,48.9,39.4,42.9,37.3,31.4,77,66,44,30.17,30.05,0,0,0,0.00
2013-2-14,70.5,57.7,44.4,42.9,35.6,29.7,75,46,27,30.14,30.05,19,0,19,0.00
2013-2-15,66.0,55.6,48.6,41.4,36.0,29.5,66,49,38,30.15,30.09,0,0,0,0.00
2013-2-16,48.7,46.2,44.4,37.1,32.9,30.6,64,60,57,30.12,30.06,0,0,0,0.00
2013-2-18,58.8,51.0,42.6,40.9,38.1,32.5,76,62,45,29.85,29.72,16,0,16,0.00
2013-2-19,43.5,38.2,32.5,38.1,32.3,27.9,83,79,74,29.73,29.55,21,0,21,0.43
2013-2-20,54.0,41.3,31.8,37.8,31.1,27.3,83,69,45,29.85,29.65,6,0,6,0.02
2013-2-21,54.7,43.6,32.7,34.4,29.5,25.3,76,59,40,30.00,29.84,7,0,7,0.00
2013-2-22,57.7,47.7,37.9,38.9,33.8,27.9,68,59,48,30.07,29.94,14,0,14,0.00
2013-2-23,54.9,46.7,37.6,35.9,27.4,18.0,75,49,28,30.10,29.94,19,0,19,0.00
2013-2-24,58.8,46.3,35.8,30.9,25.5,20.5,56,45,32,30.11,30.00,0,0,0,0.00
2013-2-25,58.3,48.2,39.4,35.0,28.1,22.5,61,47,28,30.11,30.01,0,0,0,0.00
2013-2-26,61.9,50.4,39.9,32.4,24.9,17.3,52,37,28,30.07,30.01,11,0,11,0.00
2013-2-27,64.2,51.2,41.5,35.0,29.1,21.9,54,43,31,30.21,30.06,0,0,0,0.00
2013-2-28,66.6,54.3,44.2,42.4,36.7,29.9,66,52,38,30.29,30.19,4,0,4,0.00
2013-3-1,68.4,55.9,45.7,46.6,42.1,37.2,73,61,44,30.28,30.12,0,0,0,0.00
2013-3-2,70.3,58.3,50.2,48.9,44.8,40.1,73,62,45,30.13,29.94,4,0,4,0.00
2013-3-3,61.7,53.7,46.2,50.2,45.7,41.1,82,75,59,29.94,29.87,0,0,0,0.06
2013-3-4,64.0,52.2,43.9,49.4,43.4,38.6,83,73,54,29.97,29.86,7,0,7,0.00
2013-3-5,57.9,51.7,43.0,42.9,38.1,33.3,81,61,41,29.87,29.63,25,0,25,0.41
2013-3-6,51.1,44.5,38.5,40.0,37.3,33.5,83,76,62,29.87,29.62,29,1,29,0.59
2013-3-7,58.5,44.9,36.7,40.4,35.2,31.7,83,70,48,29.84,29.73,0,0,0,0.00
2013-3-8,61.3,49.8,38.8,38.6,33.6,30.7,76,55,38,29.89,29.66,0,0,0,0.00
2013-3-9,66.7,52.0,39.7,39.1,34.2,25.2,77,53,32,30.17,29.88,0,0,0,0.00
2013-3-10,68.4,55.0,46.8,43.0,33.1,23.1,69,45,32,30.20,30.10,0,0,0,0.00
2013-3-11,68.5,54.9,44.1,46.3,39.7,33.0,69,58,42,30.12,29.97,0,0,0,0.00
2013-3-12,71.4,57.9,46.9,48.3,44.3,39.2,76,62,42,30.03,29.95,0,0,0,0.00
2013-3-13,76.3,61.6,50.5,53.0,46.6,41.9,74,60,32,30.06,29.97,0,0,0,0.00
2013-3-14,75.2,62.5,53.4,50.4,44.9,38.4,67,53,40,30.03,29.97,0,0,0,0.00
2013-3-15,73.9,61.0,52.7,50.4,44.4,39.0,68,56,38,29.99,29.90,0,0,0,0.00
2013-3-16,71.2,60.5,49.1,44.2,38.7,34.2,61,46,29,29.95,29.86,0,0,0,0.00
2013-3-17,67.3,54.7,44.1,40.7,35.1,30.4,68,50,27,29.97,29.89,0,0,0,0.00
2013-3-18,68.2,56.2,45.0,41.4,36.1,30.3,60,48,35,29.96,29.89,0,0,0,0.00
2013-3-19,66.6,56.3,47.8,48.1,43.3,39.0,82,63,42,29.98,29.91,0,0,0,0.43
2013-3-20,53.1,50.6,47.5,47.9,45.5,42.2,83,83,82,29.95,29.88,16,0,16,0.80
2013-3-21,61.7,53.1,45.3,48.8,41.4,30.8,83,67,39,29.96,29.87,9,0,9,0.00
2013-3-22,59.9,49.9,39.9,32.9,25.8,18.1,62,40,29,29.98,29.89,11,0,11,0.00
2013-3-23,65.5,52.4,40.3,35.3,29.8,23.7,54,43,28,29.99,29.90,0,0,0,0.00
2013-3-24,68.7,55.8,45.1,40.3,36.5,31.8,64,50,34,29.95,29.84,0,0,0,0.00
2013-3-25,67.8,57.3,48.7,46.4,40.8,35.6,67,55,42,29.86,29.75,7,0,7,0.00
2013-3-26,65.1,55.1,43.9,46.6,41.7,36.1,75,61,48,29.85,29.78,0,0,0,0.00
2013-3-27,68.2,57.7,48.7,49.5,45.7,41.1,77,65,50,29.86,29.78,19,0,19,0.00
2013-3-28,61.5,55.6,50.7,48.7,45.3,42.5,81,69,56,29.99,29.86,0,0,0,0.00
2013-3-29,74.3,60.3,49.1,51.9,45.8,41.3,80,61,40,29.99,29.92,0,0,0,0.00
2013-3-30,72.1,60.3,53.4,53.3,46.2,42.6,68,60,46,29.94,29.88,0,0,0,0.00
2013-4-8,62.4,51.5,42.1,41.4,33.6,28.3,82,54,28,29.92,29.61,13,1,16,0.23
2013-4-9,70.2,56.6,43.3,41.0,36.1,30.4,66,48,30,30.02,29.91,10,0,12,0.00
2013-4-10,79.3,65.2,52.3,51.9,44.2,38.0,66,48,31,30.07,29.86,8,0,8,0.00
2013-4-11,73.0,62.7,50.9,44.9,40.7,34.1,71,46,30,29.88,29.71,9,0,9,0.00
2013-4-12,76.1,65.4,55.9,45.4,38.9,29.5,56,39,29,29.79,29.69,10,0,10,0.00
2013-4-13,71.2,61.8,53.2,47.1,40.3,33.8,69,47,30,29.75,29.68,0,0,6,0.00
2013-4-14,69.4,55.5,46.2,40.4,36.9,34.1,68,51,30,29.74,29.62,4,0,9,0.00
2013-4-15,59.4,49.4,40.6,40.1,32.8,26.1,77,55,32,29.78,29.63,18,0,18,0.00
2013-4-16,62.6,49.9,39.0,33.3,28.5,21.7,64,46,24,30.04,29.77,15,0,15,0.00
2013-4-17,65.8,53.9,40.8,31.3,27.1,22.7,56,37,25,30.13,30.03,13,0,13,0.00
2013-4-18,72.7,59.8,47.8,40.6,34.0,25.3,57,39,28,30.14,30.05,8,0,8,0.00
2013-4-19,75.6,63.0,51.4,48.4,43.2,38.5,67,50,36,30.10,29.95,11,0,11,0.00
2013-4-20,77.5,65.2,52.3,44.1,39.6,31.1,61,40,26,29.99,29.85,10,0,10,0.00
2013-4-21,82.2,68.0,54.3,48.4,41.9,35.0,56,40,26,29.93,29.83,8,0,8,0.00
2013-4-22,83.3,70.5,57.9,46.0,39.2,28.6,52,34,21,29.89,29.77,21,0,21,0.00
2013-4-23,79.3,68.1,59.4,40.2,30.7,18.8,44,26,19,29.86,29.73,12,1,20,0.00
2013-4-24,83.3,69.7,55.4,37.9,30.7,22.7,43,25,15,29.79,29.70,24,1,30,0.00
2013-4-25,75.2,63.2,50.5,49.1,40.9,25.1,61,45,24,29.95,29.75,11,0,11,0.00
2013-4-26,78.1,64.5,51.8,54.2,48.6,40.9,70,57,43,30.06,29.95,3,0,3,0.00
2013-4-27,82.9,69.2,56.8,57.9,52.4,46.9,72,57,38,30.08,29.94,6,0,6,0.00
2013-4-28,86.2,72.1,60.1,56.8,50.1,46.1,66,48,27,29.95,29.78,9,0,9,0.00
2013-4-29,84.7,73.0,61.0,53.0,46.5,41.0,53,40,29,29.81,29.66,4,0,4,0.00
2013-4-30,80.4,69.7,57.4,46.3,32.6,17.3,54,28,16,29.83,29.66,12,0,12,0.00
2013-5-1,81.7,70.8,59.2,31.5,22.5,13.9,23,17,15,30.03,29.82,6,0,6,0.00
2013-5-2,87.6,73.5,59.9,44.9,32.9,16.4,40,24,15,30.08,29.97,0,0,0,0.00
2013-5-3,89.4,74.4,59.4,53.3,41.6,29.9,54,33,18,29.98,29.70,0,0,0,0.00
2013-5-4,86.5,75.8,62.1,41.7,36.2,29.3,34,24,19,29.72,29.46,0,0,0,0.00
2013-5-5,73.6,66.2,59.7,49.9,46.4,43.6,61,49,41,29.71,29.58,5,0,5,0.00
2013-5-6,62.8,57.1,51.6,54.7,48.5,44.5,81,73,61,29.82,29.70,6,0,6,0.12
2013-5-7,65.1,56.7,49.3,54.0,49.3,43.6,82,77,63,29.89,29.81,0,0,0,0.00
2013-5-8,70.7,61.0,55.9,56.6,52.7,49.3,80,74,60,29.98,29.88,0,0,0,0.00
2013-5-9,79.9,67.5,55.2,60.0,55.2,49.4,81,66,50,30.00,29.90,0,0,0,0.00
2013-5-10,86.7,72.4,58.8,64.3,58.7,52.3,80,63,46,30.02,29.94,0,0,0,0.00
2013-5-11,88.9,75.4,62.4,64.8,59.9,54.0,75,60,41,30.01,29.93,0,0,0,0.00
2013-5-12,92.3,77.6,66.9,64.5,52.6,41.7,65,45,20,30.02,29.89,0,0,0,0.00
2013-5-13,90.0,75.5,62.6,56.3,48.9,43.5,54,40,27,29.95,29.83,4,0,4,0.00
2013-5-14,91.8,76.4,61.5,57.2,51.0,42.0,60,42,28,29.84,29.76,3,0,3,0.00
2013-5-15,79.0,69.2,60.4,54.0,51.8,49.4,70,55,39,29.88,29.79,2,0,4,0.00
2013-5-16,70.9,62.4,57.7,52.6,50.7,48.8,80,66,49,29.91,29.79,8,0,8,0.02
2013-5-17,73.2,62.1,51.6,52.6,46.7,42.3,77,59,40,30.02,29.90,12,0,12,0.00
2013-5-18,78.6,65.7,51.4,50.2,44.9,39.4,68,48,33,30.10,30.01,9,0,9,0.00
2013-5-19,81.7,70.4,56.5,48.4,42.5,33.9,53,38,26,30.12,29.99,15,1,15,0.00
2013-5-20,88.2,74.9,63.5,47.8,41.2,32.9,46,31,22,30.05,29.90,16,0,16,0.00
2013-5-21,79.3,68.9,50.2,48.9,40.8,27.2,57,37,23,29.91,29.84,13,1,13,0.00
2013-5-22,69.4,57.0,42.6,31.6,27.5,21.4,45,34,20,29.93,29.83,13,0,13,0.02
2013-5-23,72.1,59.0,47.3,42.2,34.2,26.8,55,40,27,29.96,29.82,10,0,10,0.00
2013-5-24,77.2,62.9,49.3,45.9,38.2,32.4,58,41,27,29.96,29.89,10,0,10,0.00
2013-5-25,77.5,64.3,49.8,49.2,41.7,35.5,62,45,32,29.96,29.90,14,1,14,0.00
2013-5-26,75.4,64.0,50.5,51.5,45.1,40.6,72,52,36,30.04,29.95,13,1,13,0.00
2013-5-27,62.6,57.5,53.2,53.6,47.9,42.7,82,71,55,30.04,29.95,14,1,14,0.24
2013-5-28,73.2,61.8,54.1,57.5,51.9,48.8,83,71,49,29.98,29.86,10,0,10,0.00
2013-5-29,75.9,65.5,56.1,57.0,50.9,44.5,79,61,35,29.92,29.83,10,0,10,0.00
2013-5-30,83.5,68.4,54.0,53.9,44.2,37.0,74,46,21,29.99,29.90,8,1,8,0.00
2013-5-31,90.3,75.7,58.3,49.8,43.1,34.7,46,33,20,30.02,29.92,14,1,14,0.00
2013-6-1,97.5,80.1,64.8,56.2,47.9,39.2,47,34,21,29.92,29.79,8,0,8,0.00
2013-6-2,94.8,79.3,65.3,56.6,51.3,44.7,52,39,25,29.79,29.69,9,0,9,0.00
2013-6-3,97.7,82.4,67.3,56.4,49.9,41.3,56,34,20,29.80,29.71,16,0,16,0.00
2013-6-4,89.4,76.2,63.0,61.1,55.3,47.3,64,49,37,29.90,29.79,11,1,11,0.00
2013-6-5,88.3,75.1,61.2,63.1,58.3,52.6,75,57,42,29.96,29.86,8,0,8,0.00
2013-6-6,92.8,78.5,64.2,66.6,61.7,55.9,76,58,41,29.92,29.83,7,0,7,0.00
2013-6-7,103.8,84.5,67.6,67.5,57.7,47.7,70,44,18,29.89,29.78,7,1,7,0.00
2013-6-8,108.1,92.4,76.3,64.0,57.6,53.2,46,33,21,29.79,29.71,13,1,13,0.00
2013-6-9,92.5,80.6,68.2,63.8,57.5,51.8,61,46,37,29.82,29.73,14,1,14,0.00
2013-6-10,68.9,62.0,57.6,55.5,52.5,50.1,79,71,60,29.95,29.78,15,1,15,0.00
2013-6-11,82.9,69.3,56.1,59.6,52.2,45.4,80,57,31,29.97,29.88,17,1,17,0.00
2013-6-12,86.2,72.4,58.8,58.0,49.2,36.2,70,46,27,29.95,29.88,11,1,11,0.05
2013-6-13,84.4,70.3,55.9,50.8,43.6,37.4,65,41,22,30.06,29.93,12,1,12,0.00
2013-6-14,88.9,75.7,64.8,47.2,40.5,31.6,43,29,21,30.01,29.82,19,2,19,0.00
2013-6-15,90.1,75.4,61.3,51.5,44.6,37.9,52,35,19,29.93,29.82,13,1,13,0.00
2013-6-16,91.0,75.6,60.6,52.6,46.1,39.9,53,37,22,30.04,29.92,12,1,12,0.00
2013-6-17,88.7,74.9,61.9,53.9,49.0,45.2,59,42,25,30.03,29.92,16,1,16,0.00
2013-6-18,76.1,66.9,57.0,54.0,48.5,43.0,71,53,33,29.95,29.85,16,2,16,0.00
2013-6-19,76.8,65.4,51.8,50.4,45.2,40.0,73,50,30,30.02,29.92,12,1,12,0.00
2013-6-20,84.0,69.6,55.2,49.8,44.4,40.0,61,42,27,29.98,29.91,10,1,10,0.00
2013-6-21,86.7,73.4,59.2,51.4,44.2,40.4,57,37,23,29.96,29.89,15,1,15,0.00
2013-6-22,92.3,77.2,62.4,49.8,44.2,38.6,48,32,22,29.92,29.81,12,1,12,0.00
2013-6-23,77.5,68.7,63.7,58.4,50.8,43.2,75,54,40,29.83,29.77,17,2,17,0.00
2013-6-24,65.1,60.7,56.8,55.9,52.6,48.4,82,75,58,29.90,29.74,15,2,18,0.22
2013-6-25,66.0,61.0,56.8,60.7,55.5,51.4,83,82,82,29.97,29.87,22,2,22,1.16
2013-6-26,83.1,72.1,62.4,65.4,61.2,57.1,83,70,50,30.05,29.96,15,1,15,0.00
2013-6-27,92.1,77.9,64.8,66.9,62.3,58.3,81,61,40,30.10,30.03,7,0,7,0.00
2013-6-28,101.1,83.5,67.5,67.2,61.3,54.1,67,50,30,30.06,29.92,7,1,7,0.00
2013-6-29,104.4,86.5,71.8,69.3,61.2,54.7,64,46,24,29.96,29.84,11,1,11,0.00
2013-6-30,103.5,86.4,71.2,66.6,58.1,50.7,53,40,22,29.87,29.79,9,1,9,0.00
2013-7-1,104.2,87.4,73.0,68.4,61.1,53.4,57,43,28,29.90,29.81,10,1,10,0.00
2013-7-2,103.3,89.3,79.0,71.7,62.9,54.1,50,42,34,29.94,29.85,10,1,10,0.00
2013-7-3,108.7,90.9,76.1,70.0,63.9,59.7,58,43,27,29.94,29.78,14,1,14,0.00
2013-7-4,107.6,91.5,78.6,67.4,59.9,49.8,58,38,18,29.83,29.67,13,1,13,0.00
2013-7-5,93.6,81.7,70.5,60.2,57.8,54.7,62,46,28,29.75,29.66,11,0,11,0.00
2013-7-6,93.0,78.0,63.7,61.9,55.0,45.6,62,46,32,29.80,29.73,9,0,10,0.00
2013-7-7,97.0,79.3,64.2,60.7,52.3,42.9,59,41,26,29.84,29.78,13,1,13,0.00
2013-7-8,96.6,79.7,65.1,58.7,50.3,43.6,53,37,24,29.97,29.84,17,1,17,0.00
2013-7-9,98.4,81.4,66.4,57.5,49.2,40.2,53,35,16,30.05,29.97,13,2,13,0.00
2013-7-10,98.8,83.7,70.2,58.4,49.1,42.8,44,31,19,29.97,29.87,17,2,17,0.00
2013-7-11,94.5,78.6,63.5,55.6,44.6,34.1,50,32,15,29.91,29.84,12,1,12,0.00
2013-7-12,91.8,76.6,61.5,56.2,47.0,39.6,50,36,25,29.92,29.85,12,1,12,0.00
2013-7-13,95.7,79.1,63.9,55.4,47.4,41.0,48,34,20,29.97,29.89,13,1,13,0.00
2013-7-14,97.0,80.9,65.1,54.6,47.7,38.9,43,32,23,29.98,29.87,7,1,7,0.00
2013-7-15,93.4,78.6,67.3,58.1,50.7,43.3,51,39,26,29.90,29.78,10,1,10,0.00
2013-7-16,86.7,74.4,63.3,55.7,49.4,45.6,59,42,28,29.99,29.81,13,1,13,0.00
2013-7-17,93.0,75.1,58.6,54.0,47.5,39.7,56,39,25,30.07,29.98,7,1,7,0.00
2013-7-18,96.6,79.6,63.7,57.8,49.6,43.2,51,37,21,30.04,29.93,10,1,10,0.00
2013-7-19,99.7,83.0,67.8,61.1,54.7,39.3,54,39,26,29.94,29.82,9,1,9,0.00
2013-7-20,99.5,84.8,71.8,65.4,59.8,52.6,57,44,32,29.85,29.72,7,1,7,0.00
2013-7-21,100.2,84.9,70.7,66.2,62.0,57.5,63,48,31,29.84,29.75,10,1,10,0.00
2013-7-22,96.1,81.6,69.1,61.6,56.7,48.5,64,45,27,29.96,29.84,10,1,10,0.00
2013-7-23,93.9,81.2,68.7,59.0,54.3,46.6,50,41,30,30.00,29.91,14,1,14,0.00
2013-7-24,97.5,83.4,70.3,62.1,58.2,53.4,60,44,30,29.99,29.90,7,1,7,0.00
2013-7-25,99.3,85.9,73.2,65.5,61.1,56.5,59,45,31,29.98,29.91,12,1,12,0.00
2013-7-26,99.0,85.4,73.6,65.6,61.1,56.8,58,46,29,30.05,29.95,9,1,9,0.00
2013-7-27,97.0,83.9,71.6,62.2,58.8,53.9,55,44,30,30.00,29.83,10,1,10,0.00
2013-7-28,95.5,81.0,67.8,63.4,57.8,51.5,62,47,31,29.85,29.76,14,1,16,0.00
2013-7-29,87.1,74.9,63.1,58.5,54.0,47.2,68,50,26,29.98,29.80,12,1,14,0.00
2013-7-30,91.2,74.9,59.9,58.7,51.4,44.6,62,46,28,30.07,29.97,11,1,11,0.00
2013-7-31,90.7,77.5,66.4,59.5,49.9,40.9,51,39,18,30.04,29.93,9,1,12,0.00
2013-8-1,84.9,73.3,60.1,55.6,48.0,42.9,56,42,27,30.02,29.93,14,1,14,0.00
2013-8-2,91.2,76.4,62.8,54.5,47.9,42.3,52,38,24,29.95,29.88,11,1,11,0.00
2013-8-3,92.1,77.0,64.0,55.1,48.9,44.9,53,39,25,29.96,29.89,6,1,7,0.00
2013-8-4,93.0,77.3,63.7,57.7,49.2,42.6,48,38,24,29.98,29.91,14,1,14,0.00
2013-8-5,90.3,76.6,65.1,56.8,49.9,44.6,51,40,25,30.00,29.92,11,1,11,0.00
2013-8-6,90.3,75.7,64.2,56.0,49.8,44.0,52,41,25,29.98,29.92,14,1,14,0.00
2013-8-7,82.0,70.7,56.5,58.5,53.1,47.9,76,55,40,30.05,29.96,13,1,13,0.00
2013-8-8,86.4,70.6,58.3,58.1,51.1,46.0,70,52,32,30.00,29.91,10,1,11,0.00
2013-8-9,85.6,71.2,58.6,55.4,49.5,43.1,59,48,29,29.95,29.88,13,1,13,0.00
2013-8-10,85.5,72.3,60.1,56.8,50.4,44.3,60,47,30,30.02,29.95,12,1,12,0.00
2013-8-11,88.3,74.7,62.2,57.4,50.7,44.0,60,44,24,30.00,29.91,11,1,11,0.00
2013-8-12,90.0,75.4,63.7,56.0,49.6,44.6,56,41,27,29.99,29.92,10,1,10,0.00
2013-8-13,97.9,78.3,64.6,54.6,47.7,43.0,52,36,19,30.00,29.91,10,1,10,0.00
2013-8-14,95.7,79.9,66.0,53.9,46.7,36.8,47,33,17,29.97,29.89,15,2,15,0.00
2013-8-15,94.3,79.4,66.4,57.5,48.1,40.6,43,34,23,29.96,29.90,13,1,13,0.00
2013-8-16,95.4,79.6,69.3,58.5,49.4,45.1,45,36,21,30.00,29.92,14,2,14,0.00
2013-8-17,96.3,81.0,69.1,58.2,51.6,45.4,47,37,26,29.98,29.85,8,1,8,0.00
2013-8-18,96.6,82.4,69.3,63.0,57.3,50.4,54,43,32,29.91,29.83,8,1,8,0.00
2013-8-19,93.0,83.2,73.6,66.9,59.9,55.5,56,46,36,29.92,29.84,8,1,8,0.00
2013-8-20,94.6,82.9,70.7,65.0,60.3,55.3,75,48,33,29.90,29.80,8,1,12,0.02
2013-8-21,90.7,79.8,71.4,63.5,60.0,53.6,69,52,36,29.91,29.84,12,1,12,0.00
2013-8-22,91.4,75.9,68.4,58.1,52.3,47.6,59,46,25,29.93,29.85,14,1,14,0.00
2013-8-23,88.9,74.6,62.8,56.9,49.5,43.6,52,42,26,29.90,29.79,17,1,17,0.00
2013-8-24,85.6,74.5,62.4,55.9,50.1,44.7,56,43,33,29.86,29.80,17,1,17,0.00
2013-8-25,85.3,73.8,65.7,57.5,52.4,49.2,59,48,36,29.93,29.85,20,2,20,0.00
2013-8-26,86.4,72.1,60.6,58.3,52.2,48.3,72,51,33,29.99,29.90,13,2,13,0.00
2013-8-27,91.8,75.4,62.2,54.8,49.0,45.7,59,42,26,29.91,29.80,14,2,14,0.00
2013-8-28,90.3,76.0,65.1,57.0,49.6,45.2,52,40,27,29.92,29.82,12,1,12,0.00
2013-8-29,90.5,76.9,65.5,55.1,48.1,44.2,51,37,25,30.04,29.91,15,2,15,0.00
2013-8-30,94.1,81.8,66.4,53.4,48.4,43.1,49,33,20,30.05,29.93,8,1,8,0.00
2013-8-31,95.5,79.8,68.0,54.8,48.1,42.0,43,34,23,29.97,29.87,14,2,14,0.00
2013-9-1,87.1,76.4,69.6,63.0,53.3,47.4,78,47,31,29.93,29.86,13,1,13,0.02
2013-9-2,82.8,74.3,68.0,61.3,57.3,52.1,69,56,40,29.94,29.87,18,1,18,0.00
2013-9-3,84.6,72.4,64.8,61.4,54.8,50.1,73,55,39,29.98,29.90,15,1,15,0.00
2013-9-4,85.5,71.3,60.1,59.1,52.8,48.4,73,53,38,30.01,29.91,9,1,14,0.00
2013-9-5,81.5,69.8,57.4,57.5,49.8,45.0,72,51,30,29.99,29.91,13,2,13,0.00
2013-9-6,90.9,75.3,61.3,50.1,44.8,40.2,50,35,22,30.00,29.87,11,2,11,0.00
2013-9-7,93.6,78.2,66.0,53.2,47.0,41.4,47,35,21,29.92,29.84,13,2,13,0.00
2013-9-8,96.6,80.3,67.1,55.1,48.5,43.8,48,35,21,29.90,29.79,8,2,8,0.00
2013-9-9,99.7,84.4,71.4,53.5,48.3,45.2,41,30,18,29.83,29.71,10,2,10,0.00
2013-9-10,95.2,81.9,71.8,58.5,51.2,43.0,56,36,26,29.85,29.73,11,1,11,0.00
2013-9-11,84.9,72.2,62.4,60.3,55.9,51.3,69,57,43,29.96,29.85,14,0,14,0.00
2013-9-12,84.9,72.3,61.5,60.3,56.6,53.2,75,59,41,29.97,29.86,8,0,8,0.00
2013-9-13,87.6,75.8,65.1,63.0,58.2,53.9,69,55,42,29.90,29.74,8,1,8,0.00
2013-9-14,89.2,76.7,66.0,62.4,58.7,55.3,69,55,40,29.81,29.71,4,0,7,0.00
2013-9-15,85.3,72.3,60.4,56.5,49.7,43.1,67,47,26,29.85,29.72,17,1,17,0.00
2013-9-16,84.9,70.8,59.4,53.1,47.8,41.1,54,45,29,29.90,29.77,9,1,9,0.00
2013-9-17,75.7,68.1,58.8,54.0,51.0,47.8,69,55,46,29.89,29.75,20,1,20,0.00
2013-9-18,82.2,70.1,59.9,49.3,43.8,40.3,66,41,24,29.92,29.82,16,1,16,0.00
2013-9-19,86.5,71.7,59.7,49.8,42.6,37.1,47,36,25,29.88,29.77,13,1,13,0.00
2013-9-20,83.1,71.4,62.8,53.8,44.4,38.1,70,40,23,29.81,29.73,27,3,27,0.00
2013-9-21,62.8,57.1,51.6,53.9,51.1,46.4,83,80,70,29.88,29.76,17,1,17,1.24
2013-9-22,67.6,57.1,47.1,53.4,48.4,42.2,83,74,56,29.99,29.88,7,0,7,0.00
2013-9-23,77.9,64.6,53.8,57.7,52.4,47.5,80,66,45,30.01,29.92,9,0,9,0.00
2013-9-24,71.8,64.5,55.8,55.9,51.6,42.9,80,64,48,29.95,29.81,16,2,16,0.39
2013-9-25,65.5,55.8,46.6,47.4,40.9,35.5,81,60,34,29.88,29.79,6,0,14,0.00
2013-9-26,69.1,57.3,46.6,43.3,37.6,33.1,69,50,33,30.00,29.83,11,1,11,0.00
2013-9-27,72.9,60.8,50.4,43.1,39.0,33.8,60,46,31,30.08,30.00,10,1,10,0.00
2013-9-28,77.0,64.4,54.0,46.5,41.7,35.5,61,46,25,30.09,29.97,15,2,17,0.00
2013-9-29,68.2,63.2,59.7,55.1,48.7,39.4,75,60,42,30.06,29.98,22,2,22,0.00
2013-9-30,69.6,62.5,59.5,58.8,55.2,53.2,82,77,66,30.02,29.94,18,2,18,0.02
2013-10-1,72.3,62.3,56.1,58.8,53.1,48.2,83,73,52,30.00,29.92,6,0,8,0.00
2013-10-2,72.5,61.5,52.9,52.2,43.3,31.9,73,53,32,29.97,29.89,8,1,8,0.00
2013-10-3,68.9,58.0,47.5,36.1,32.4,28.6,57,40,23,30.11,29.97,13,1,22,0.00
2013-10-4,75.7,64.2,52.2,33.9,29.5,25.9,43,28,19,30.17,30.09,50,3,50,0.00
2013-10-5,77.5,66.8,58.3,41.3,33.2,25.1,46,30,22,30.21,30.13,21,2,21,0.00
2013-10-6,79.2,64.7,54.9,44.9,39.0,34.0,50,40,23,30.15,30.01,8,1,8,0.00
2013-10-7,77.7,64.3,55.0,43.9,37.0,31.6,45,37,24,30.02,29.88,6,1,6,0.00
2013-10-8,73.0,60.8,53.2,41.9,37.1,33.2,54,42,28,29.89,29.65,6,1,6,0.00
2013-10-9,70.5,61.0,52.0,40.2,36.7,33.1,52,41,30,29.77,29.56,18,2,18,0.00
2013-10-10,67.3,57.9,50.5,46.2,41.9,36.1,66,56,45,29.98,29.74,12,1,12,0.00
2013-10-11,70.2,58.9,50.7,46.5,42.9,40.5,69,57,39,30.05,29.96,6,1,6,0.00
2013-10-12,70.3,58.1,49.6,48.3,43.1,38.3,81,59,40,29.98,29.86,13,1,13,0.17
2013-10-13,69.6,59.4,50.2,46.0,40.8,36.8,81,52,36,30.05,29.90,15,2,15,0.00
2013-10-14,72.1,62.7,55.2,41.2,37.5,31.8,50,40,29,30.10,30.01,14,2,14,0.00
2013-10-15,75.4,65.7,58.3,35.9,32.2,28.3,36,29,22,30.08,29.99,24,3,24,0.00
2013-10-16,75.9,62.7,55.0,43.6,35.4,27.7,51,37,26,30.10,30.00,11,1,11,0.00
2013-10-17,75.6,61.8,51.6,42.5,37.6,32.1,51,42,28,30.08,29.97,6,1,6,0.00
2013-10-18,75.6,65.1,57.0,43.9,38.9,33.3,52,39,29,30.05,29.97,12,1,12,0.00
2013-10-19,79.2,64.3,55.0,45.1,40.8,35.9,52,43,29,30.08,30.02,44,2,44,0.00
2013-10-20,80.1,64.9,55.2,47.1,41.9,37.3,54,44,28,30.04,29.90,6,1,6,0.00
2013-10-21,77.2,64.3,56.1,47.4,42.9,38.3,57,47,33,29.99,29.92,6,1,6,0.00
2013-10-22,79.3,65.0,55.6,46.2,40.4,31.7,52,41,28,30.02,29.93,6,1,6,0.04
2013-10-23,80.1,64.5,54.7,43.0,34.8,27.0,43,34,22,29.95,29.87,28,2,28,0.00
2013-10-24,75.0,62.4,54.3,45.9,38.7,32.0,56,42,31,30.04,29.92,14,1,14,0.00
2013-10-25,74.1,60.7,51.3,46.0,39.1,32.8,52,45,35,30.15,30.04,4,1,6,0.00
2013-10-26,75.6,61.8,52.2,45.9,40.2,34.9,54,46,30,30.14,30.01,39,1,39,0.00
2013-10-27,71.1,58.7,44.4,45.5,39.0,34.2,78,49,34,30.01,29.57,23,2,23,0.04
2013-10-28,53.2,48.0,43.0,43.6,40.2,36.9,82,75,67,29.83,29.58,11,1,11,0.06
2013-10-29,54.1,49.0,45.0,46.4,43.0,39.6,82,80,73,30.02,29.82,6,0,6,0.02
2013-10-30,61.2,50.1,42.3,44.8,40.8,37.1,82,71,53,30.11,30.01,7,1,7,0.00
2013-10-31,65.3,53.5,47.1,45.6,41.6,37.5,77,65,47,30.14,30.06,6,1,6,0.00
2013-11-1,70.0,57.4,48.9,47.4,43.6,38.4,77,62,39,30.15,30.01,7,1,7,0.00
2013-11-2,69.6,57.7,49.3,43.3,38.9,35.6,61,50,37,30.02,29.88,10,1,10,0.00
2013-11-3,62.8,51.8,44.8,35.9,28.5,21.5,66,43,26,30.00,29.87,13,0,13,0.00
2013-11-4,63.3,53.6,47.3,31.1,27.6,24.1,47,37,29,30.10,29.87,17,2,17,0.00
2013-11-5,68.4,56.2,46.2,38.0,32.8,25.8,59,42,28,30.21,30.08,12,1,12,0.00
2013-11-6,65.8,56.1,48.4,40.9,38.4,35.1,63,52,38,30.24,30.15,7,0,7,0.00
2013-11-7,70.3,59.1,53.2,41.4,38.2,33.4,58,47,31,30.17,30.05,12,1,12,0.00
2013-11-8,69.6,57.3,49.8,41.3,37.6,32.9,63,49,34,30.08,29.95,16,1,16,0.00
2013-11-9,69.6,57.4,49.6,45.8,42.1,39.3,68,58,42,30.03,29.97,60,1,60,0.00
2013-11-10,71.2,58.1,51.1,43.4,38.6,33.2,60,49,32,30.09,30.02,16,1,16,0.00
2013-11-11,72.0,57.7,49.8,38.8,33.1,28.4,48,40,25,30.16,30.06,9,1,9,0.00
2013-11-12,68.7,60.7,55.2,41.2,37.0,31.8,55,42,33,30.25,30.14,7,0,7,0.00
2013-11-13,74.8,62.7,52.9,44.6,40.5,36.8,60,45,32,30.22,30.07,14,1,14,0.00
2013-11-14,67.8,57.3,50.4,44.3,39.6,35.2,66,52,38,30.08,29.82,6,0,6,0.00
2013-11-15,66.4,54.6,47.3,38.9,31.8,26.9,70,44,23,29.82,29.70,15,1,15,0.00
2013-11-16,61.9,51.7,45.9,39.6,34.2,28.6,65,52,41,29.90,29.71,12,1,14,0.00
2013-11-17,59.4,49.1,42.1,40.0,36.4,32.8,71,62,48,30.06,29.89,5,1,5,0.00
2013-11-18,59.7,50.4,44.2,42.8,39.2,34.3,74,66,53,30.10,30.02,12,0,12,0.00
2013-11-19,51.6,49.5,47.1,46.6,44.1,41.3,83,82,74,30.05,29.90,8,0,8,1.30
2013-11-20,52.7,50.9,47.8,47.7,45.8,42.9,83,83,82,29.91,29.82,17,1,17,0.80
2013-11-21,55.4,49.5,43.5,42.9,28.0,17.2,84,46,26,30.09,29.87,28,2,28,0.00
2013-11-22,65.8,52.8,41.2,25.7,19.5,14.1,41,28,16,30.13,30.01,22,2,22,0.00
2013-11-23,65.8,55.2,45.1,31.6,22.0,14.8,45,28,19,30.08,29.98,20,2,20,0.00
2013-11-24,56.7,46.4,40.5,40.1,35.1,25.5,76,65,47,30.21,30.08,4,0,4,0.00
2013-11-25,57.7,46.7,39.6,39.5,35.0,29.0,76,64,49,30.28,30.20,6,1,6,0.00
2013-11-26,59.5,48.9,43.0,41.1,37.1,32.8,74,64,48,30.24,30.04,6,0,6,0.00
2013-11-27,61.7,51.8,45.3,43.8,38.4,34.9,68,60,49,30.04,29.87,6,0,6,0.00
2013-11-28,64.2,54.0,48.2,41.7,38.0,34.9,66,55,39,30.06,29.88,7,1,7,0.00
2013-11-29,63.7,52.6,46.2,41.8,38.1,34.2,69,59,43,30.19,30.05,7,1,7,0.00
2013-11-30,62.2,52.6,47.8,42.8,39.3,35.9,71,61,48,30.24,30.16,6,1,6,0.00
2013-12-1,62.4,52.3,45.7,43.6,40.5,36.1,76,65,49,30.30,30.19,5,1,5,0.00
2013-12-2,59.5,52.0,45.7,44.2,41.5,37.5,74,68,56,30.19,29.84,9,1,9,0.00
2013-12-3,52.3,45.6,35.1,44.5,30.8,17.1,81,58,34,29.90,29.76,12,1,12,0.00
2013-12-4,45.0,36.6,29.8,19.4,16.0,11.0,53,43,33,30.01,29.89,14,2,14,0.00
2013-12-5,42.4,34.1,29.1,18.5,15.9,12.8,58,48,37,30.07,30.00,9,1,9,0.00
2013-12-6,41.2,33.7,28.4,28.2,21.7,16.1,82,62,46,30.10,29.83,13,1,13,0.00
2013-12-7,38.8,32.5,27.0,30.2,26.5,21.6,82,79,67,30.15,29.82,5,0,6,0.24
2013-12-8,39.0,30.1,23.5,25.0,20.8,11.9,80,69,36,30.26,30.14,17,1,17,0.09
2013-12-9,46.6,36.7,30.9,24.8,18.7,11.9,75,50,28,30.36,30.25,24,2,24,0.04
2013-12-10,48.7,37.3,30.0,29.4,25.4,20.8,74,63,44,30.36,30.13,26,1,26,0.00
2013-12-11,52.0,42.0,33.6,33.8,29.4,24.5,73,61,47,30.19,30.15,8,1,8,0.00
2013-12-12,55.6,44.8,39.4,33.6,28.7,24.4,63,54,37,30.22,30.12,11,2,11,0.00
2013-12-13,58.3,46.6,36.7,35.8,29.6,23.7,62,52,37,30.26,30.18,14,1,14,0.00
2013-12-14,55.2,46.2,39.4,36.7,31.8,26.7,70,58,40,30.35,30.25,13,0,13,0.00
2013-12-15,60.1,48.7,42.1,36.9,33.3,28.6,67,56,40,30.35,30.21,5,1,5,0.00
2013-12-16,64.9,52.3,44.6,42.3,35.2,29.4,65,53,35,30.23,30.12,7,0,7,0.00
2013-12-17,64.8,54.2,47.8,44.5,35.2,30.3,55,49,39,30.17,30.03,6,1,6,0.00
2013-12-18,61.2,52.8,43.9,40.1,35.2,30.2,68,52,41,30.03,29.70,8,1,8,0.00
2013-12-19,54.7,47.4,39.7,32.6,24.3,13.5,67,42,28,29.94,29.66,25,3,25,0.00
2013-12-20,57.0,45.3,36.3,28.5,20.8,13.8,53,39,21,29.98,29.90,8,0,8,0.00
2013-12-21,55.8,46.9,39.0,38.0,33.1,26.9,73,59,47,30.08,29.93,7,1,7,0.00
2013-12-22,64.9,53.0,45.7,41.7,36.7,31.3,64,54,41,30.26,30.07,6,1,7,0.00
2013-12-23,58.8,49.7,42.4,41.2,37.3,33.4,72,63,49,30.37,30.25,8,1,8,0.00
2013-12-24,66.4,56.2,47.1,43.1,36.4,25.7,66,50,24,30.29,30.19,20,1,20,0.00
2013-12-25,63.0,52.9,45.7,40.3,32.7,26.6,57,47,28,30.29,30.20,8,1,10,0.00
2013-12-26,64.0,53.0,47.5,37.5,32.9,28.6,56,47,34,30.25,30.17,9,1,9,0.00
2013-12-27,61.0,50.3,44.1,38.1,32.2,27.4,60,50,39,30.22,30.09,8,1,8,0.00
2013-12-28,63.7,52.7,41.2,34.1,26.0,13.3,52,37,20,30.13,30.06,20,2,20,0.00
2013-12-29,59.9,53.9,45.9,35.9,25.9,14.4,61,37,19,30.17,30.09,24,2,24,0.00
2013-12-30,59.5,51.3,46.0,36.4,30.3,25.7,53,45,34,30.22,30.16,8,1,8,0.00
2013-12-31,61.0,51.0,45.7,35.9,31.2,27.8,55,47,33,30.23,30.13,6,0,6,0.00
2014-1-1,58.6,50.8,46.0,37.9,33.7,28.7,66,52,43,30.17,30.10,6,0,6,0.00
2014-1-2,63.7,52.5,45.1,40.2,35.8,31.1,64,54,37,30.16,30.04,9,1,9,0.00